createdAt,value
2019-01-23T00:01:19.667Z,95559.44
2019-01-23T00:03:47.061Z,95561.27
2019-01-23T00:06:14.460Z,95557.83
2019-01-23T00:08:41.869Z,95550.08
2019-01-23T00:11:09.292Z,95552.53
2019-01-23T00:13:36.690Z,95551.69
2019-01-23T00:16:04.114Z,95545.78
2019-01-23T00:18:31.576Z,95542.17
2019-01-23T00:20:59.007Z,95546.57
2019-01-23T00:23:26.408Z,95543.28
2019-01-23T00:25:53.888Z,95539.16
2019-01-23T00:28:21.304Z,95537.45
2019-01-23T00:30:48.747Z,95535.54
2019-01-23T00:33:16.214Z,95530.50
2019-01-23T00:35:43.670Z,95528.00
2019-01-23T00:38:11.101Z,95530.26
2019-01-23T00:40:38.557Z,95527.45
2019-01-23T00:43:05.962Z,95514.58
2019-01-23T00:45:33.392Z,95511.30
2019-01-23T00:48:00.840Z,95504.30
2019-01-23T00:50:28.796Z,95501.78
2019-01-23T00:52:56.190Z,95502.48
2019-01-23T00:55:23.624Z,95499.25
2019-01-23T00:57:51.015Z,95492.61
2019-01-23T01:00:22.361Z,95491.66
2019-01-23T01:02:49.784Z,95488.81
2019-01-23T01:05:17.630Z,95486.95
2019-01-23T01:07:45.029Z,95485.99
2019-01-23T01:10:12.459Z,95485.60
2019-01-23T01:12:39.892Z,95479.61
2019-01-23T01:15:13.127Z,95476.55
2019-01-23T01:17:34.709Z,95475.99
2019-01-23T01:20:02.174Z,95472.00
2019-01-23T01:22:29.676Z,95473.58
2019-01-23T01:24:57.084Z,95469.83
2019-01-23T01:27:24.482Z,95470.24
2019-01-23T01:29:51.904Z,95464.83
2019-01-23T01:32:19.488Z,95466.33
2019-01-23T01:34:46.941Z,95464.42
2019-01-23T01:37:14.404Z,95467.53
2019-01-23T01:39:41.810Z,95459.49
2019-01-23T01:42:09.230Z,95460.95
2019-01-23T01:44:36.641Z,95464.18
2019-01-23T01:47:04.038Z,95464.05
2019-01-23T01:49:31.454Z,95461.98
2019-01-23T01:51:58.426Z,95466.05
2019-01-23T01:54:25.888Z,95461.03
2019-01-23T01:56:53.365Z,95450.47
2019-01-23T01:59:20.786Z,95446.56
2019-01-23T02:01:47.741Z,95441.55
2019-01-23T02:04:15.151Z,95432.36
2019-01-23T02:06:42.657Z,95426.93
2019-01-23T02:09:10.078Z,95415.23
2019-01-23T02:11:37.484Z,95420.08
2019-01-23T02:14:04.898Z,95422.38
2019-01-23T02:16:32.315Z,95412.59
2019-01-23T02:18:59.731Z,95413.91
2019-01-23T02:21:27.144Z,95415.78
2019-01-23T02:23:54.547Z,95410.88
2019-01-23T02:26:22.214Z,95405.08
2019-01-23T02:28:49.664Z,95396.24
2019-01-23T02:31:17.070Z,95392.06
2019-01-23T02:33:44.619Z,95385.80
2019-01-23T02:36:12.033Z,95379.80
2019-01-23T02:38:39.457Z,95382.33
2019-01-23T02:41:06.885Z,95376.56
2019-01-23T02:43:34.348Z,95365.06
2019-01-23T02:46:01.918Z,95359.46
2019-01-23T02:48:29.465Z,95356.70
2019-01-23T02:50:56.863Z,95343.72
2019-01-23T02:53:24.346Z,95344.10
2019-01-23T02:55:51.816Z,95337.64
2019-01-23T02:58:19.270Z,95329.62
2019-01-23T03:00:46.702Z,95329.84
2019-01-23T03:03:14.380Z,95326.63
2019-01-23T03:05:41.828Z,95329.63
2019-01-23T03:08:09.232Z,95315.30
2019-01-23T03:10:36.636Z,95318.12
2019-01-23T03:13:04.054Z,95305.67
2019-01-23T03:15:31.021Z,95303.64
2019-01-23T03:17:58.518Z,95303.39
2019-01-23T03:20:25.914Z,95297.92
2019-01-23T03:22:53.470Z,95298.83
2019-01-23T03:25:20.899Z,95287.28
2019-01-23T03:27:48.327Z,95288.90
2019-01-23T03:30:16.451Z,95290.72
2019-01-23T03:32:43.881Z,95282.11
2019-01-23T03:35:11.294Z,95278.95
2019-01-23T03:37:38.721Z,95286.70
2019-01-23T03:40:07.912Z,95279.90
2019-01-23T03:42:35.173Z,95277.05
2019-01-23T03:45:02.602Z,95274.06
2019-01-23T03:47:30.052Z,95270.88
2019-01-23T03:49:58.091Z,95266.98
2019-01-23T03:52:25.496Z,95256.52
2019-01-23T03:54:52.969Z,95255.93
2019-01-23T03:57:20.400Z,95257.39
2019-01-23T03:59:48.676Z,95253.20
2019-01-23T04:02:16.100Z,95255.79
2019-01-23T04:04:43.507Z,95254.02
2019-01-23T04:07:10.973Z,95250.47
2019-01-23T04:09:38.377Z,95246.73
2019-01-23T04:12:05.850Z,95248.38
2019-01-23T04:14:33.314Z,95247.75
2019-01-23T04:17:00.776Z,95248.57
2019-01-23T04:19:28.229Z,95242.94
2019-01-23T04:21:55.635Z,95242.99
2019-01-23T04:24:23.075Z,95241.98
2019-01-23T04:26:50.943Z,95230.82
2019-01-23T04:29:18.463Z,95225.23
2019-01-23T04:31:45.920Z,95222.55
2019-01-23T04:34:13.337Z,95222.05
2019-01-23T04:36:40.734Z,95206.77
2019-01-23T04:39:08.158Z,95200.14
2019-01-23T04:41:35.644Z,95190.94
2019-01-23T04:44:03.046Z,95194.09
2019-01-23T04:46:30.480Z,95189.42
2019-01-23T04:48:57.885Z,95185.20
2019-01-23T04:51:40.221Z,95189.66
2019-01-23T04:54:07.645Z,95170.64
2019-01-23T04:56:35.046Z,95172.95
2019-01-23T04:59:02.500Z,95170.70
2019-01-23T05:01:29.951Z,95167.03
2019-01-23T05:03:57.420Z,95164.51
2019-01-23T05:06:24.842Z,95160.12
2019-01-23T05:08:52.258Z,95160.45
2019-01-23T05:11:19.695Z,95159.50
2019-01-23T05:13:47.099Z,95161.37
2019-01-23T05:16:14.604Z,95151.92
2019-01-23T05:18:42.159Z,95148.30
2019-01-23T05:21:09.590Z,95147.49
2019-01-23T05:23:36.990Z,95143.59
2019-01-23T05:26:04.422Z,95138.92
2019-01-23T05:28:31.983Z,95140.34
2019-01-23T05:30:59.375Z,95133.66
2019-01-23T05:33:27.267Z,95135.40
2019-01-23T05:35:54.685Z,95133.48
2019-01-23T05:38:22.143Z,95126.94
2019-01-23T05:40:49.542Z,95129.66
2019-01-23T05:43:16.964Z,95120.09
2019-01-23T05:45:44.447Z,95117.52
2019-01-23T05:48:11.862Z,95110.66
2019-01-23T05:50:39.358Z,95107.20
2019-01-23T05:53:06.771Z,95099.58
2019-01-23T05:55:34.184Z,95102.91
2019-01-23T05:58:01.601Z,95092.98
2019-01-23T06:00:29.053Z,95100.92
2019-01-23T06:02:56.464Z,95098.94
2019-01-23T06:05:23.877Z,95096.80
2019-01-23T06:07:51.316Z,95094.21
2019-01-23T06:10:18.755Z,95097.75
2019-01-23T06:12:46.163Z,95096.89
2019-01-23T06:15:13.698Z,95103.14
2019-01-23T06:17:41.173Z,95093.61
2019-01-23T06:20:09.462Z,95093.51
2019-01-23T06:22:36.868Z,95098.45
2019-01-23T06:25:04.365Z,95086.19
2019-01-23T06:27:31.880Z,95086.50
2019-01-23T06:29:59.329Z,95082.45
2019-01-23T06:32:26.822Z,95079.59
2019-01-23T06:34:54.455Z,95073.16
2019-01-23T06:37:21.900Z,95070.13
2019-01-23T06:39:49.399Z,95066.24
2019-01-23T06:42:16.816Z,95060.74
2019-01-23T06:44:44.219Z,95056.22
2019-01-23T06:47:11.748Z,95057.41
2019-01-23T06:49:39.246Z,95055.50
2019-01-23T06:52:06.740Z,95046.25
2019-01-23T06:54:34.199Z,95046.02
2019-01-23T06:57:01.714Z,95047.23
2019-01-23T06:59:29.150Z,95045.30
2019-01-23T07:01:56.623Z,95044.79
2019-01-23T07:04:24.079Z,95042.84
2019-01-23T07:06:54.892Z,95046.72
2019-01-23T07:09:22.977Z,95041.53
2019-01-23T07:11:50.399Z,95043.84
2019-01-23T07:14:18.154Z,95035.62
2019-01-23T07:16:45.568Z,95037.80
2019-01-23T07:19:13.068Z,95032.72
2019-01-23T07:21:40.537Z,95023.73
2019-01-23T07:24:08.130Z,95032.25
2019-01-23T07:26:35.620Z,95033.11
2019-01-23T07:29:03.887Z,95026.20
2019-01-23T07:31:31.286Z,95022.44
2019-01-23T07:33:58.980Z,95023.80
2019-01-23T07:36:26.533Z,95029.02
2019-01-23T07:38:54.089Z,95026.20
2019-01-23T07:41:21.518Z,95027.97
2019-01-23T07:43:48.936Z,95020.83
2019-01-23T07:46:16.349Z,95013.88
2019-01-23T07:48:43.746Z,95020.66
2019-01-23T07:51:11.170Z,95017.57
2019-01-23T07:53:38.594Z,95013.64
2019-01-23T07:56:07.048Z,95009.94
2019-01-23T07:58:34.469Z,95011.29
2019-01-23T08:01:01.891Z,95012.02
2019-01-23T08:03:29.367Z,95015.98
2019-01-23T08:05:56.781Z,95014.45
2019-01-23T08:08:24.193Z,95014.77
2019-01-23T08:10:51.598Z,95020.35
2019-01-23T08:13:19.179Z,95010.75
2019-01-23T08:15:46.570Z,95015.41
2019-01-23T08:18:14.013Z,95007.50
2019-01-23T08:20:41.474Z,95010.13
2019-01-23T08:23:08.930Z,95003.25
2019-01-23T08:25:36.537Z,95010.95
2019-01-23T08:28:03.945Z,95002.31
2019-01-23T08:30:38.434Z,95000.41
2019-01-23T08:32:58.968Z,95001.06
2019-01-23T08:35:26.427Z,95000.69
2019-01-23T08:37:53.881Z,95002.48
2019-01-23T08:40:21.349Z,94997.30
2019-01-23T08:42:48.803Z,95002.01
2019-01-23T08:45:16.290Z,95003.53
2019-01-23T08:47:43.750Z,95003.97
2019-01-23T08:50:18.734Z,94996.02
2019-01-23T08:52:46.199Z,94998.16
2019-01-23T08:55:14.168Z,94996.60
2019-01-23T08:57:41.603Z,95000.95
2019-01-23T09:00:09.283Z,95001.63
2019-01-23T09:02:37.564Z,94999.20
2019-01-23T09:05:05.085Z,94992.72
2019-01-23T09:07:32.508Z,95000.89
2019-01-23T09:09:59.936Z,94996.14
2019-01-23T09:12:27.360Z,94990.38
2019-01-23T09:14:54.851Z,94989.36
2019-01-23T09:17:22.278Z,94993.44
2019-01-23T09:19:49.706Z,94992.61
2019-01-23T09:22:17.135Z,94993.37
2019-01-23T09:24:45.353Z,94987.47
2019-01-23T09:27:12.771Z,94989.41
2019-01-23T09:29:40.338Z,94986.97
2019-01-23T09:32:13.810Z,94986.66
2019-01-23T09:34:42.186Z,94986.27
2019-01-23T09:37:10.445Z,94988.21
2019-01-23T09:39:43.803Z,94992.75
2019-01-23T09:42:12.896Z,94985.78
2019-01-23T09:44:48.083Z,94982.55
2019-01-23T09:47:18.343Z,94978.09
2019-01-23T09:50:07.466Z,94982.02
2019-01-23T09:52:57.585Z,94981.11
2019-01-23T09:55:25.034Z,94982.95
2019-01-23T09:57:52.461Z,94983.23
2019-01-23T10:00:20.185Z,94976.34
2019-01-23T10:02:47.584Z,94975.48
2019-01-23T10:05:15.042Z,94985.45
2019-01-23T10:07:42.543Z,94980.80
2019-01-23T10:10:09.931Z,94968.81
2019-01-23T10:12:37.492Z,94971.51
2019-01-23T10:15:05.075Z,94975.89
2019-01-23T10:17:32.581Z,94971.23
2019-01-23T10:20:00.192Z,94973.53
2019-01-23T10:22:27.631Z,94967.91
2019-01-23T10:24:55.157Z,94966.91
2019-01-23T10:27:22.650Z,94973.77
2019-01-23T10:29:50.110Z,94969.80
2019-01-23T10:32:17.585Z,94966.52
2019-01-23T10:34:44.996Z,94966.27
2019-01-23T10:37:12.551Z,94959.02
2019-01-23T10:39:39.958Z,94961.66
2019-01-23T10:42:07.584Z,94959.09
2019-01-23T10:44:34.983Z,94956.12
2019-01-23T10:47:02.424Z,94954.56
2019-01-23T10:49:29.911Z,94954.73
2019-01-23T10:51:57.405Z,94947.89
2019-01-23T10:54:24.803Z,94948.36
2019-01-23T10:56:52.216Z,94945.17
2019-01-23T10:59:19.663Z,94944.18
2019-01-23T11:01:47.099Z,94950.43
2019-01-23T11:04:15.100Z,94943.36
2019-01-23T11:06:42.649Z,94941.28
2019-01-23T11:09:10.196Z,94935.12
2019-01-23T11:11:38.348Z,94939.28
2019-01-23T11:14:05.797Z,94937.34
2019-01-23T11:16:34.141Z,94940.39
2019-01-23T11:19:01.784Z,94941.17
2019-01-23T11:21:29.202Z,94931.95
2019-01-23T11:23:56.612Z,94934.72
2019-01-23T11:26:24.042Z,94931.14
2019-01-23T11:28:51.608Z,94926.44
2019-01-23T11:31:20.510Z,94935.83
2019-01-23T11:33:46.551Z,94928.42
2019-01-23T11:36:14.024Z,94922.95
2019-01-23T11:38:41.442Z,94931.45
2019-01-23T11:41:09.783Z,94932.71
2019-01-23T11:43:37.375Z,94927.69
2019-01-23T11:46:05.506Z,94922.94
2019-01-23T11:48:32.898Z,94919.32
2019-01-23T11:51:00.382Z,94923.84
2019-01-23T11:53:27.872Z,94918.58
2019-01-23T11:55:55.384Z,94922.33
2019-01-23T11:58:22.843Z,94913.70
2019-01-23T12:00:50.684Z,94919.19
2019-01-23T12:03:21.041Z,94920.22
2019-01-23T12:05:45.642Z,94918.87
2019-01-23T12:08:13.075Z,94918.47
2019-01-23T12:10:40.616Z,94908.39
2019-01-23T12:13:08.380Z,94908.47
2019-01-23T12:15:40.780Z,94902.86
2019-01-23T12:18:03.334Z,94908.44
2019-01-23T12:20:30.855Z,94907.10
2019-01-23T12:25:32.116Z,94899.91
2019-01-23T12:27:59.560Z,94901.16
2019-01-23T12:30:27.731Z,94905.20
2019-01-23T12:32:55.200Z,94898.00
2019-01-23T12:35:22.767Z,94903.55
2019-01-23T12:37:50.204Z,94903.95
2019-01-23T12:40:17.724Z,94905.70
2019-01-23T12:42:45.240Z,94907.25
2019-01-23T12:45:14.651Z,94909.27
2019-01-23T12:47:42.100Z,94902.81
2019-01-23T12:50:10.570Z,94905.55
2019-01-23T12:52:37.991Z,94910.91
2019-01-23T12:55:05.470Z,94904.02
2019-01-23T12:57:32.895Z,94899.45
2019-01-23T13:00:05.148Z,94904.80
2019-01-23T13:02:27.838Z,94900.13
2019-01-23T13:04:55.232Z,94899.75
2019-01-23T13:07:23.181Z,94899.77
2019-01-23T13:09:51.026Z,94900.13
2019-01-23T13:12:18.426Z,94904.88
2019-01-23T13:14:45.863Z,94904.98
2019-01-23T13:17:13.962Z,94894.14
2019-01-23T13:19:41.472Z,94887.61
2019-01-23T13:22:08.888Z,94897.34
2019-01-23T13:24:36.301Z,94889.58
2019-01-23T13:27:03.718Z,94898.69
2019-01-23T13:29:31.115Z,94899.92
2019-01-23T13:31:58.600Z,94893.57
2019-01-23T13:34:26.013Z,94895.27
2019-01-23T13:36:53.504Z,94899.27
2019-01-23T13:39:20.958Z,94898.64
2019-01-23T13:41:48.446Z,94903.50
2019-01-23T13:44:15.841Z,94900.81
2019-01-23T13:46:43.285Z,94899.66
2019-01-23T13:49:10.698Z,94904.72
2019-01-23T13:51:38.116Z,94908.63
2019-01-23T13:54:05.575Z,94907.54
2019-01-23T13:56:33.930Z,94908.22
2019-01-23T13:59:01.347Z,94908.22
2019-01-23T14:01:28.762Z,94905.59
2019-01-23T14:03:56.339Z,94907.08
2019-01-23T14:06:24.474Z,94905.66
2019-01-23T14:08:51.922Z,94905.66
2019-01-23T14:11:19.327Z,94917.39
2019-01-23T14:13:46.723Z,94910.37
2019-01-23T14:16:14.122Z,94912.20
2019-01-23T14:18:41.520Z,94913.24
2019-01-23T14:21:09.171Z,94918.82
2019-01-23T14:23:36.575Z,94922.45
2019-01-23T14:26:04.111Z,94921.63
2019-01-23T14:28:31.521Z,94923.25
2019-01-23T14:30:58.953Z,94924.91
2019-01-23T14:33:26.426Z,94925.48
2019-01-23T14:35:53.839Z,94917.34
2019-01-23T14:38:21.364Z,94929.25
2019-01-23T14:40:48.780Z,94932.44
2019-01-23T14:43:16.277Z,94931.86
2019-01-23T14:45:43.706Z,94938.56
2019-01-23T14:48:11.200Z,94936.27
2019-01-23T14:50:38.610Z,94936.84
2019-01-23T14:53:06.036Z,94936.26
2019-01-23T14:55:33.688Z,94936.22
2019-01-23T14:58:01.158Z,94933.92
2019-01-23T15:00:29.420Z,94942.45
2019-01-23T15:02:56.935Z,94947.37
2019-01-23T15:05:24.341Z,94947.80
2019-01-23T15:07:51.806Z,94954.14
2019-01-23T15:10:20.018Z,94951.45
2019-01-23T15:12:47.463Z,94951.96
2019-01-23T15:15:14.899Z,94952.67
2019-01-23T15:17:43.277Z,94953.64
2019-01-23T15:20:12.219Z,94956.55
2019-01-23T15:22:39.702Z,94960.86
2019-01-23T15:25:06.727Z,94959.33
2019-01-23T15:27:34.307Z,94958.33
2019-01-23T15:30:01.950Z,94965.14
2019-01-23T15:32:29.412Z,94968.55
2019-01-23T15:34:56.904Z,94968.07
2019-01-23T15:37:24.424Z,94964.89
2019-01-23T15:39:51.955Z,94969.09
2019-01-23T15:42:18.967Z,94971.36
2019-01-23T15:44:46.355Z,94966.76
2019-01-23T15:47:13.891Z,94970.05
2019-01-23T15:49:41.308Z,94970.87
2019-01-23T15:52:08.726Z,94977.87
2019-01-23T15:54:36.142Z,94976.98
2019-01-23T15:57:03.686Z,94987.91
2019-01-23T15:59:31.172Z,94984.67
2019-01-23T16:01:58.741Z,94982.95
2019-01-23T16:04:26.150Z,94988.45
2019-01-23T16:06:54.145Z,94989.00
2019-01-23T16:09:21.592Z,94993.41
2019-01-23T16:11:49.131Z,95003.89
2019-01-23T16:14:16.623Z,94997.93
2019-01-23T16:16:44.095Z,95003.71
2019-01-23T16:19:11.637Z,95011.93
2019-01-23T16:21:45.454Z,95008.29
2019-01-23T16:24:07.107Z,95018.89
2019-01-23T16:26:34.531Z,95008.12
2019-01-23T16:29:02.091Z,95018.53
2019-01-23T16:31:29.543Z,95026.52
2019-01-23T16:33:56.982Z,95026.59
2019-01-23T16:36:24.423Z,95023.19
2019-01-23T16:38:52.778Z,95023.78
2019-01-23T16:41:20.180Z,95029.02
2019-01-23T16:43:47.699Z,95030.75
2019-01-23T16:46:15.106Z,95034.86
2019-01-23T16:48:42.543Z,95041.13
2019-01-23T16:51:09.980Z,95042.39
2019-01-23T16:53:37.410Z,95049.24
2019-01-23T16:56:04.880Z,95049.04
2019-01-23T16:58:32.285Z,95051.41
2019-01-23T17:01:00.512Z,95047.45
2019-01-23T17:03:28.885Z,95052.70
2019-01-23T17:05:56.432Z,95058.53
2019-01-23T17:08:23.860Z,95060.46
2019-01-23T17:10:51.257Z,95062.28
2019-01-23T17:13:18.765Z,95068.33
2019-01-23T17:15:47.365Z,95071.97
2019-01-23T17:18:14.787Z,95073.01
2019-01-23T17:20:42.185Z,95073.47
2019-01-23T17:23:09.630Z,95078.77
2019-01-23T17:25:37.048Z,95083.44
2019-01-23T17:28:04.647Z,95086.88
2019-01-23T17:30:32.181Z,95090.77
2019-01-23T17:32:59.764Z,95093.73
2019-01-23T17:35:28.586Z,95098.70
2019-01-23T17:37:55.968Z,95104.93
2019-01-23T17:40:23.398Z,95096.98
2019-01-23T17:42:50.427Z,95100.91
2019-01-23T17:45:19.197Z,95098.91
2019-01-23T17:47:46.352Z,95093.84
2019-01-23T17:50:13.336Z,95102.24
2019-01-23T17:52:40.349Z,95105.36
2019-01-23T17:55:07.313Z,95108.21
2019-01-23T17:57:34.354Z,95112.11
2019-01-23T18:00:01.320Z,95117.08
2019-01-23T18:02:29.094Z,95116.91
2019-01-23T18:04:56.063Z,95120.32
2019-01-23T18:07:23.048Z,95125.63
2019-01-23T18:09:50.007Z,95120.45
2019-01-23T18:12:17.045Z,95124.63
2019-01-23T18:14:48.992Z,95126.75
2019-01-23T18:17:11.102Z,95126.00
2019-01-23T18:19:38.178Z,95123.23
2019-01-23T18:22:06.492Z,95129.21
2019-01-23T18:24:33.452Z,95132.16
2019-01-23T18:27:00.447Z,95135.43
2019-01-23T18:29:27.599Z,95140.71
2019-01-23T18:31:55.415Z,95137.19
2019-01-23T18:34:24.012Z,95145.87
2019-01-23T18:37:07.639Z,95136.45
2019-01-23T18:39:36.734Z,95142.38
2019-01-23T18:42:14.538Z,95142.72
2019-01-23T18:44:52.269Z,95149.84
2019-01-23T18:47:26.033Z,95147.52
2019-01-23T18:50:11.268Z,95160.23
2019-01-23T18:52:38.254Z,95161.47
2019-01-23T18:55:05.648Z,95166.44
2019-01-23T18:57:32.632Z,95169.83
2019-01-23T18:59:59.622Z,95171.52
2019-01-23T19:02:26.562Z,95177.09
2019-01-23T19:04:53.758Z,95187.77
2019-01-23T19:07:20.788Z,95181.16
2019-01-23T19:09:48.194Z,95187.79
2019-01-23T19:12:15.390Z,95191.45
2019-01-23T19:14:42.348Z,95192.08
2019-01-23T19:17:09.334Z,95189.23
2019-01-23T19:19:36.464Z,95193.11
2019-01-23T19:22:03.559Z,95199.81
2019-01-23T19:24:30.510Z,95202.59
2019-01-23T19:26:57.523Z,95204.03
2019-01-23T19:29:24.505Z,95202.16
2019-01-23T19:31:51.465Z,95205.36
2019-01-23T19:34:18.405Z,95206.73
2019-01-23T19:36:45.592Z,95205.15
2019-01-23T19:39:12.583Z,95208.22
2019-01-23T19:41:40.046Z,95214.28
2019-01-23T19:44:07.140Z,95210.20
2019-01-23T19:46:34.143Z,95214.36
2019-01-23T19:49:01.132Z,95214.03
2019-01-23T19:51:28.267Z,95222.41
2019-01-23T19:53:55.215Z,95225.10
2019-01-23T19:56:22.193Z,95229.06
2019-01-23T19:58:49.169Z,95235.79
2019-01-23T20:01:16.188Z,95234.56
2019-01-23T20:03:43.143Z,95234.50
2019-01-23T20:06:10.099Z,95234.23
2019-01-23T20:11:10.503Z,95232.73
2019-01-23T20:13:37.520Z,95237.69
2019-01-23T20:16:04.536Z,95243.27
2019-01-23T20:18:31.572Z,95241.70
2019-01-23T20:20:58.683Z,95240.73
2019-01-23T20:23:25.651Z,95246.45
2019-01-23T20:25:52.626Z,95250.69
2019-01-23T20:28:19.647Z,95248.84
2019-01-23T20:30:46.649Z,95253.27
2019-01-23T20:33:13.823Z,95253.66
2019-01-23T20:35:41.046Z,95253.88
2019-01-23T20:38:07.980Z,95251.78
2019-01-23T20:40:34.943Z,95262.58
2019-01-23T20:43:02.057Z,95259.45
2019-01-23T20:45:29.235Z,95258.02
2019-01-23T20:47:56.201Z,95263.85
2019-01-23T20:50:23.163Z,95258.91
2019-01-23T20:52:50.368Z,95259.92
2019-01-23T20:55:18.363Z,95268.36
2019-01-23T20:57:45.605Z,95273.23
2019-01-23T21:00:14.194Z,95270.58
2019-01-23T21:02:41.388Z,95272.42
2019-01-23T21:05:08.601Z,95280.03
2019-01-23T21:07:35.602Z,95284.91
2019-01-23T21:10:02.634Z,95286.22
2019-01-23T21:12:29.935Z,95293.50
2019-01-23T21:14:56.967Z,95297.27
2019-01-23T21:17:24.042Z,95296.28
2019-01-23T21:19:51.235Z,95297.23
2019-01-23T21:22:18.270Z,95296.28
2019-01-23T21:24:45.273Z,95296.72
2019-01-23T21:27:12.307Z,95303.30
2019-01-23T21:29:39.343Z,95301.30
2019-01-23T21:32:06.436Z,95308.25
2019-01-23T21:34:33.561Z,95305.48
2019-01-23T21:37:00.507Z,95306.22
2019-01-23T21:39:27.451Z,95301.52
2019-01-23T21:41:54.386Z,95307.03
2019-01-23T21:44:21.324Z,95308.05
2019-01-23T21:46:48.405Z,95310.35
2019-01-23T21:49:15.545Z,95303.11
2019-01-23T21:51:42.683Z,95307.97
2019-01-23T21:54:09.639Z,95306.41
2019-01-23T21:56:36.631Z,95311.89
2019-01-23T21:59:03.593Z,95319.64
2019-01-23T22:01:30.582Z,95309.06
2019-01-23T22:03:57.997Z,95321.95
2019-01-23T22:06:25.063Z,95327.07
2019-01-23T22:08:52.169Z,95326.69
2019-01-23T22:11:19.142Z,95334.89
2019-01-23T22:13:46.083Z,95329.72
2019-01-23T22:16:13.051Z,95338.02
2019-01-23T22:18:40.058Z,95335.62
2019-01-23T22:21:07.022Z,95338.89
2019-01-23T22:23:34.154Z,95342.97
2019-01-23T22:26:01.295Z,95347.05
2019-01-23T22:28:28.239Z,95347.31
2019-01-23T22:30:55.203Z,95358.05
2019-01-23T22:33:22.154Z,95348.09
2019-01-23T22:35:49.115Z,95350.59
2019-01-23T22:38:16.236Z,95352.14
2019-01-23T22:40:43.204Z,95362.19
2019-01-23T22:43:15.010Z,95363.02
2019-01-23T22:45:37.116Z,95366.63
2019-01-23T22:48:04.040Z,95363.44
2019-01-23T22:50:31.025Z,95368.78
2019-01-23T22:52:57.973Z,95368.94
2019-01-23T22:55:25.099Z,95369.27
2019-01-23T22:57:52.030Z,95368.53
2019-01-23T23:00:19.977Z,95379.34
2019-01-23T23:02:47.702Z,95376.70
2019-01-23T23:05:14.980Z,95381.27
2019-01-23T23:07:41.952Z,95383.44
2019-01-23T23:10:08.923Z,95381.79
2019-01-23T23:12:35.855Z,95392.55
2019-01-23T23:15:02.857Z,95396.78
2019-01-23T23:17:29.788Z,95399.27
2019-01-23T23:19:56.756Z,95396.30
2019-01-23T23:22:23.715Z,95407.63
2019-01-23T23:24:50.686Z,95409.59
2019-01-23T23:27:18.147Z,95411.44
2019-01-23T23:29:45.165Z,95411.72
2019-01-23T23:32:12.107Z,95416.20
2019-01-23T23:34:39.069Z,95419.80
2019-01-23T23:37:06.002Z,95424.52
2019-01-23T23:39:33.040Z,95432.86
2019-01-23T23:42:00.601Z,95426.73
2019-01-23T23:44:27.554Z,95429.27
2019-01-23T23:46:55.611Z,95431.04
2019-01-23T23:49:21.543Z,95437.95
2019-01-23T23:51:48.532Z,95433.22
2019-01-23T23:54:15.474Z,95430.94
2019-01-23T23:56:42.643Z,95442.03
2019-01-23T23:59:09.622Z,95438.94
